createdAt,value
2023-01-12T00:00:44.346Z,90.89
2023-01-12T00:01:44.276Z,90.89
2023-01-12T00:02:44.303Z,91.09
2023-01-12T00:03:44.240Z,90.68
2023-01-12T00:04:44.257Z,90.78
2023-01-12T00:05:44.224Z,90.78
2023-01-12T00:06:44.215Z,90.99
2023-01-12T00:07:44.211Z,90.37
2023-01-12T00:08:44.199Z,90.47
2023-01-12T00:09:44.191Z,90.78
2023-01-12T00:10:44.202Z,90.37
2023-01-12T00:11:44.173Z,90.06
2023-01-12T00:12:44.152Z,89.95
2023-01-12T00:13:44.143Z,90.78
2023-01-12T00:14:44.128Z,91.30
2023-01-12T00:15:44.143Z,91.40
2023-01-12T00:16:44.126Z,91.20
2023-01-12T00:17:44.102Z,91.50
2023-01-12T00:18:44.100Z,91.40
2023-01-12T00:19:44.077Z,91.61
2023-01-12T00:20:44.079Z,91.50
2023-01-12T00:21:44.056Z,91.40
2023-01-12T00:22:44.052Z,91.20
2023-01-12T00:23:44.040Z,91.71
2023-01-12T00:24:44.072Z,91.71
2023-01-12T00:25:44.022Z,91.09
2023-01-12T00:26:44.007Z,91.09
2023-01-12T00:27:43.994Z,91.20
2023-01-12T00:28:43.989Z,91.61
2023-01-12T00:29:43.975Z,91.30
2023-01-12T00:30:43.973Z,91.71
2023-01-12T00:31:43.959Z,92.02
2023-01-12T00:32:43.949Z,92.23
2023-01-12T00:33:43.971Z,91.82
2023-01-12T00:34:43.928Z,91.30
2023-01-12T00:35:43.921Z,91.40
2023-01-12T00:36:43.920Z,91.71
2023-01-12T00:37:43.902Z,91.20
2023-01-12T00:38:43.889Z,91.09
2023-01-12T00:39:53.236Z,91.20
2023-01-12T00:40:43.881Z,91.50
2023-01-12T00:41:43.858Z,91.20
2023-01-12T00:42:43.858Z,91.71
2023-01-12T00:43:43.831Z,91.40
2023-01-12T00:44:43.825Z,91.82
2023-01-12T00:45:43.824Z,91.82
2023-01-12T00:46:43.804Z,91.82
2023-01-12T00:47:43.794Z,91.61
2023-01-12T00:48:43.783Z,91.82
2023-01-12T00:49:43.777Z,91.71
2023-01-12T00:50:43.760Z,91.61
2023-01-12T00:51:43.760Z,91.40
2023-01-12T00:52:43.743Z,91.40
2023-01-12T00:53:43.726Z,91.20
2023-01-12T00:54:43.729Z,91.20
2023-01-12T00:55:43.717Z,91.61
2023-01-12T00:56:43.696Z,91.61
2023-01-12T00:57:43.685Z,91.50
2023-01-12T00:58:43.681Z,91.61
2023-01-12T00:59:43.661Z,91.82
2023-01-12T01:00:43.665Z,91.71
2023-01-12T01:01:43.799Z,91.92
2023-01-12T01:02:43.682Z,91.71
2023-01-12T01:03:43.631Z,91.92
2023-01-12T01:04:43.624Z,92.02
2023-01-12T01:05:43.626Z,92.02
2023-01-12T01:06:43.604Z,92.23
2023-01-12T01:07:43.586Z,92.02
2023-01-12T01:08:43.582Z,92.23
2023-01-12T01:09:43.560Z,92.13
2023-01-12T01:10:43.557Z,92.64
2023-01-12T01:11:43.542Z,92.13
2023-01-12T01:12:43.546Z,92.23
2023-01-12T01:13:43.523Z,92.23
2023-01-12T01:14:43.521Z,92.44
2023-01-12T01:15:43.590Z,92.23
2023-01-12T01:16:43.492Z,92.13
2023-01-12T01:17:43.489Z,92.23
2023-01-12T01:18:43.475Z,92.64
2023-01-12T01:19:43.468Z,92.13
2023-01-12T01:20:43.525Z,92.23
2023-01-12T01:21:43.437Z,92.23
2023-01-12T01:22:43.433Z,92.13
2023-01-12T01:23:43.421Z,92.08
2023-01-12T01:24:43.437Z,92.33
2023-01-12T01:25:43.405Z,92.33
2023-01-12T01:26:43.391Z,92.95
2023-01-12T01:27:43.373Z,92.64
2023-01-12T01:28:43.371Z,92.44
2023-01-12T01:29:43.368Z,92.54
2023-01-12T01:30:43.358Z,92.74
2023-01-12T01:31:43.334Z,92.95
2023-01-12T01:32:43.330Z,92.74
2023-01-12T01:33:43.318Z,92.13
2023-01-12T01:34:43.314Z,92.13
2023-01-12T01:35:43.304Z,92.08
2023-01-12T01:36:43.297Z,92.19
2023-01-12T01:37:43.279Z,92.13
2023-01-12T01:38:43.266Z,92.13
2023-01-12T01:39:43.284Z,91.98
2023-01-12T01:40:43.248Z,92.08
2023-01-12T01:41:43.731Z,91.98
2023-01-12T01:42:43.223Z,91.98
2023-01-12T01:43:43.218Z,91.88
2023-01-12T01:44:43.213Z,92.19
2023-01-12T01:45:43.203Z,91.98
2023-01-12T01:46:43.271Z,91.67
2023-01-12T01:47:43.185Z,91.67
2023-01-12T01:48:43.159Z,91.98
2023-01-12T01:49:43.159Z,91.77
2023-01-12T01:50:43.150Z,91.98
2023-01-12T01:51:43.135Z,92.08
2023-01-12T01:52:43.144Z,92.08
2023-01-12T01:53:43.118Z,92.19
2023-01-12T01:54:43.101Z,92.40
2023-01-12T01:55:43.103Z,92.60
2023-01-12T01:56:43.083Z,92.29
2023-01-12T01:57:43.096Z,92.19
2023-01-12T01:58:43.077Z,92.50
2023-01-12T01:59:43.060Z,92.08
2023-01-12T02:00:43.051Z,92.29
2023-01-12T02:01:43.153Z,92.40
2023-01-12T02:02:43.035Z,92.80
2023-01-12T02:03:43.035Z,92.50
2023-01-12T02:04:43.003Z,92.60
2023-01-12T02:05:43.009Z,92.70
2023-01-12T02:06:42.976Z,92.60
2023-01-12T02:07:42.974Z,92.40
2023-01-12T02:08:42.959Z,92.60
2023-01-12T02:09:42.957Z,92.40
2023-01-12T02:10:42.966Z,93.01
2023-01-12T02:11:42.931Z,92.80
2023-01-12T02:12:42.926Z,93.22
2023-01-12T02:13:42.910Z,93.01
2023-01-12T02:14:42.898Z,93.22
2023-01-12T02:15:42.958Z,93.32
2023-01-12T02:16:42.878Z,93.12
2023-01-12T02:17:42.871Z,92.70
2023-01-12T02:18:42.857Z,92.70
2023-01-12T02:19:42.862Z,93.12
2023-01-12T02:20:42.862Z,93.12
2023-01-12T02:21:42.834Z,93.12
2023-01-12T02:22:42.818Z,93.22
2023-01-12T02:23:42.809Z,93.63
2023-01-12T02:24:42.794Z,94.04
2023-01-12T02:25:42.808Z,93.53
2023-01-12T02:26:42.774Z,93.63
2023-01-12T02:27:42.769Z,93.32
2023-01-12T02:28:42.755Z,93.43
2023-01-12T02:29:42.747Z,93.32
2023-01-12T02:30:42.752Z,93.32
2023-01-12T02:31:42.778Z,93.53
2023-01-12T02:32:42.717Z,93.43
2023-01-12T02:33:42.705Z,93.22
2023-01-12T02:34:42.730Z,93.53
2023-01-12T02:35:42.693Z,93.63
2023-01-12T02:36:42.722Z,93.53
2023-01-12T02:37:42.666Z,93.43
2023-01-12T02:38:42.654Z,93.12
2023-01-12T02:39:42.656Z,93.12
2023-01-12T02:40:42.653Z,93.12
2023-01-12T02:41:42.629Z,93.32
2023-01-12T02:42:42.638Z,92.97
2023-01-12T02:43:42.619Z,93.22
2023-01-12T02:44:42.620Z,93.43
2023-01-12T02:45:42.601Z,92.97
2023-01-12T02:46:42.635Z,93.18
2023-01-12T02:47:42.561Z,93.22
2023-01-12T02:48:42.549Z,93.22
2023-01-12T02:49:42.543Z,93.22
2023-01-12T02:50:42.569Z,93.12
2023-01-12T02:51:42.524Z,92.97
2023-01-12T02:52:42.523Z,93.32
2023-01-12T02:53:42.499Z,92.97
2023-01-12T02:54:42.492Z,93.07
2023-01-12T02:55:42.494Z,92.97
2023-01-12T02:56:42.467Z,93.38
2023-01-12T02:57:42.466Z,93.18
2023-01-12T02:58:42.451Z,93.18
2023-01-12T02:59:42.446Z,92.97
2023-01-12T03:00:42.490Z,92.86
2023-01-12T03:01:42.493Z,92.97
2023-01-12T03:02:42.450Z,92.86
2023-01-12T03:03:42.414Z,93.18
2023-01-12T03:04:42.396Z,92.97
2023-01-12T03:05:42.396Z,92.97
2023-01-12T03:06:42.378Z,92.97
2023-01-12T03:07:42.355Z,93.18
2023-01-12T03:08:42.351Z,93.18
2023-01-12T03:09:42.332Z,93.28
2023-01-12T03:10:42.352Z,93.18
2023-01-12T03:11:42.313Z,93.18
2023-01-12T03:12:42.306Z,93.28
2023-01-12T03:13:42.289Z,93.38
2023-01-12T03:14:42.283Z,93.38
2023-01-12T03:15:42.299Z,93.28
2023-01-12T03:16:42.304Z,93.18
2023-01-12T03:17:42.256Z,93.49
2023-01-12T03:18:42.246Z,93.38
2023-01-12T03:19:42.226Z,93.28
2023-01-12T03:20:42.251Z,93.18
2023-01-12T03:21:42.214Z,93.28
2023-01-12T03:22:42.202Z,93.18
2023-01-12T03:23:42.192Z,93.38
2023-01-12T03:24:42.196Z,93.18
2023-01-12T03:25:42.241Z,93.28
2023-01-12T03:26:42.161Z,93.28
2023-01-12T03:27:42.146Z,93.49
2023-01-12T03:28:42.141Z,93.38
2023-01-12T03:29:42.133Z,93.49
2023-01-12T03:30:42.174Z,93.38
2023-01-12T03:31:42.143Z,93.24
2023-01-12T03:32:42.095Z,93.07
2023-01-12T03:33:42.088Z,93.18
2023-01-12T03:34:42.107Z,93.54
2023-01-12T03:35:42.065Z,93.28
2023-01-12T03:36:42.062Z,93.28
2023-01-12T03:37:42.049Z,93.34
2023-01-12T03:38:42.045Z,93.44
2023-01-12T03:39:42.018Z,93.24
2023-01-12T03:40:42.021Z,93.03
2023-01-12T03:41:42.003Z,93.34
2023-01-12T03:42:42.010Z,93.44
2023-01-12T03:43:41.987Z,93.34
2023-01-12T03:44:41.975Z,93.34
2023-01-12T03:45:41.960Z,93.54
2023-01-12T03:46:42.033Z,93.54
2023-01-12T03:47:41.962Z,93.65
2023-01-12T03:48:41.939Z,93.54
2023-01-12T03:49:41.914Z,93.65
2023-01-12T03:50:41.909Z,93.65
2023-01-12T03:51:41.895Z,93.54
2023-01-12T03:52:41.938Z,93.79
2023-01-12T03:53:41.877Z,93.75
2023-01-12T03:54:41.865Z,93.65
2023-01-12T03:55:41.853Z,93.65
2023-01-12T03:56:41.853Z,93.65
2023-01-12T03:57:41.871Z,93.44
2023-01-12T03:58:41.836Z,93.44
2023-01-12T03:59:41.841Z,93.24
2023-01-12T04:00:41.839Z,93.34
2023-01-12T04:01:42.029Z,93.34
2023-01-12T04:02:41.812Z,93.13
2023-01-12T04:03:41.825Z,93.34
2023-01-12T04:04:41.760Z,93.44
2023-01-12T04:05:41.748Z,93.13
2023-01-12T04:06:41.745Z,93.13
2023-01-12T04:07:41.724Z,93.03
2023-01-12T04:08:41.729Z,93.13
2023-01-12T04:09:41.711Z,92.93
2023-01-12T04:10:41.713Z,92.93
2023-01-12T04:11:41.713Z,92.93
2023-01-12T04:12:41.682Z,93.13
2023-01-12T04:13:41.664Z,93.13
2023-01-12T04:14:41.659Z,92.93
2023-01-12T04:15:41.651Z,93.24
2023-01-12T04:16:41.732Z,93.34
2023-01-12T04:17:41.631Z,93.24
2023-01-12T04:18:41.614Z,93.13
2023-01-12T04:19:41.619Z,93.03
2023-01-12T04:20:41.616Z,93.03
2023-01-12T04:21:41.609Z,93.34
2023-01-12T04:22:41.611Z,93.03
2023-01-12T04:23:41.576Z,93.13
2023-01-12T04:24:41.556Z,93.34
2023-01-12T04:25:41.543Z,93.24
2023-01-12T04:26:41.575Z,93.13
2023-01-12T04:27:41.531Z,92.93
2023-01-12T04:28:41.523Z,93.03
2023-01-12T04:29:41.503Z,92.93
2023-01-12T04:30:41.492Z,92.82
2023-01-12T04:31:41.572Z,92.78
2023-01-12T04:32:41.474Z,93.03
2023-01-12T04:33:41.468Z,92.82
2023-01-12T04:34:41.454Z,92.82
2023-01-12T04:35:41.441Z,92.93
2023-01-12T04:36:42.002Z,93.03
2023-01-12T04:37:41.419Z,92.99
2023-01-12T04:38:41.412Z,93.03
2023-01-12T04:39:41.401Z,92.93
2023-01-12T04:40:41.388Z,92.93
2023-01-12T04:41:41.396Z,92.68
2023-01-12T04:42:41.377Z,92.57
2023-01-12T04:43:41.357Z,92.57
2023-01-12T04:44:41.371Z,92.78
2023-01-12T04:45:41.418Z,92.99
2023-01-12T04:46:41.343Z,92.99
2023-01-12T04:47:41.316Z,92.99
2023-01-12T04:48:41.310Z,92.82
2023-01-12T04:49:41.298Z,92.88
2023-01-12T04:50:41.287Z,92.82
2023-01-12T04:51:41.288Z,93.09
2023-01-12T04:52:41.279Z,92.99
2023-01-12T04:53:41.285Z,93.13
2023-01-12T04:54:41.250Z,92.88
2023-01-12T04:55:41.234Z,93.09
2023-01-12T04:56:41.381Z,92.88
2023-01-12T04:57:41.210Z,92.99
2023-01-12T04:58:41.207Z,92.88
2023-01-12T04:59:41.195Z,92.88
2023-01-12T05:00:41.189Z,93.09
2023-01-12T05:01:41.281Z,92.88
2023-01-12T05:02:41.188Z,92.78
2023-01-12T05:03:41.200Z,92.78
2023-01-12T05:04:41.150Z,92.88
2023-01-12T05:05:41.159Z,92.57
2023-01-12T05:06:41.144Z,92.57
2023-01-12T05:07:41.117Z,92.57
2023-01-12T05:08:41.105Z,92.78
2023-01-12T05:09:41.119Z,92.57
2023-01-12T05:10:41.092Z,92.88
2023-01-12T05:11:41.085Z,92.88
2023-01-12T05:12:41.068Z,93.09
2023-01-12T05:13:41.051Z,92.99
2023-01-12T05:14:41.063Z,93.09
2023-01-12T05:15:41.037Z,92.88
2023-01-12T05:16:41.104Z,92.99
2023-01-12T05:17:41.022Z,92.99
2023-01-12T05:18:41.001Z,92.88
2023-01-12T05:19:40.995Z,92.68
2023-01-12T05:20:40.994Z,92.88
2023-01-12T05:21:40.982Z,92.68
2023-01-12T05:22:40.971Z,92.68
2023-01-12T05:23:40.945Z,92.78
2023-01-12T05:24:40.961Z,92.78
2023-01-12T05:25:40.930Z,92.88
2023-01-12T05:26:40.934Z,92.99
2023-01-12T05:27:40.901Z,93.09
2023-01-12T05:28:40.897Z,93.19
2023-01-12T05:29:40.883Z,93.19
2023-01-12T05:30:40.920Z,92.99
2023-01-12T05:31:40.893Z,93.09
2023-01-12T05:32:40.858Z,92.99
2023-01-12T05:33:40.840Z,92.78
2023-01-12T05:34:40.837Z,92.57
2023-01-12T05:35:40.826Z,92.68
2023-01-12T05:36:40.838Z,92.57
2023-01-12T05:37:40.804Z,92.88
2023-01-12T05:38:40.794Z,92.78
2023-01-12T05:39:40.781Z,92.84
2023-01-12T05:40:40.774Z,92.78
2023-01-12T05:41:40.773Z,92.99
2023-01-12T05:42:40.753Z,92.99
2023-01-12T05:43:40.744Z,92.63
2023-01-12T05:44:40.755Z,92.53
2023-01-12T05:45:40.775Z,92.68
2023-01-12T05:46:40.723Z,92.84
2023-01-12T05:47:40.700Z,92.84
2023-01-12T05:48:40.689Z,92.99
2023-01-12T05:49:40.699Z,92.88
2023-01-12T05:50:40.674Z,92.74
2023-01-12T05:51:40.673Z,92.99
2023-01-12T05:52:40.654Z,93.15
2023-01-12T05:53:40.650Z,93.35
2023-01-12T05:54:40.630Z,93.40
2023-01-12T05:55:40.612Z,93.09
2023-01-12T05:56:40.627Z,93.40
2023-01-12T05:57:40.609Z,92.84
2023-01-12T05:58:40.587Z,93.09
2023-01-12T05:59:40.571Z,93.05
2023-01-12T06:00:40.579Z,93.15
2023-01-12T06:01:40.571Z,92.94
2023-01-12T06:02:40.572Z,92.99
2023-01-12T06:03:40.531Z,92.84
2023-01-12T06:04:40.584Z,92.94
2023-01-12T06:05:40.520Z,93.15
2023-01-12T06:06:40.508Z,92.74
2023-01-12T06:07:40.491Z,92.63
2023-01-12T06:08:40.496Z,92.12
2023-01-12T06:09:40.489Z,92.53
2023-01-12T06:10:40.462Z,92.53
2023-01-12T06:11:40.466Z,92.12
2023-01-12T06:12:40.447Z,91.91
2023-01-12T06:13:40.430Z,92.02
2023-01-12T06:14:40.434Z,91.91
2023-01-12T06:15:40.450Z,92.12
2023-01-12T06:16:40.437Z,92.22
2023-01-12T06:17:40.449Z,92.63
2023-01-12T06:18:40.383Z,91.91
2023-01-12T06:19:40.365Z,92.02
2023-01-12T06:20:40.384Z,91.91
2023-01-12T06:21:40.419Z,92.12
2023-01-12T06:22:40.348Z,91.91
2023-01-12T06:23:40.337Z,92.22
2023-01-12T06:24:40.324Z,92.22
2023-01-12T06:25:40.308Z,92.33
2023-01-12T06:26:40.298Z,92.53
2023-01-12T06:27:40.290Z,92.53
2023-01-12T06:28:40.281Z,92.53
2023-01-12T06:29:40.306Z,92.43
2023-01-12T06:30:40.257Z,92.74
2023-01-12T06:31:40.248Z,92.74
2023-01-12T06:32:40.247Z,92.53
2023-01-12T06:33:40.235Z,92.63
2023-01-12T06:34:40.224Z,92.43
2023-01-12T06:35:40.207Z,92.43
2023-01-12T06:36:40.203Z,92.43
2023-01-12T06:37:40.197Z,92.53
2023-01-12T06:38:40.176Z,92.84
2023-01-12T06:39:40.162Z,92.74
2023-01-12T06:40:40.173Z,92.74
2023-01-12T06:41:40.139Z,92.43
2023-01-12T06:42:40.135Z,92.33
2023-01-12T06:43:40.120Z,92.02
2023-01-12T06:44:40.115Z,92.22
2023-01-12T06:45:40.125Z,91.71
2023-01-12T06:46:40.298Z,91.81
2023-01-12T06:47:40.083Z,92.12
2023-01-12T06:48:40.076Z,91.91
2023-01-12T06:49:40.061Z,91.91
2023-01-12T06:50:40.053Z,91.81
2023-01-12T06:51:39.987Z,92.12
2023-01-12T06:52:40.046Z,92.12
2023-01-12T06:53:39.975Z,91.91
2023-01-12T06:54:39.967Z,91.81
2023-01-12T06:55:40.000Z,92.02
2023-01-12T06:56:39.950Z,92.43
2023-01-12T06:57:39.941Z,92.22
2023-01-12T06:58:39.914Z,92.53
2023-01-12T06:59:39.963Z,92.33
2023-01-12T07:00:39.916Z,92.74
2023-01-12T07:01:40.037Z,92.63
2023-01-12T07:02:39.881Z,93.15
2023-01-12T07:03:39.865Z,93.05
2023-01-12T07:04:39.915Z,92.53
2023-01-12T07:05:39.860Z,93.15
2023-01-12T07:06:39.834Z,93.15
2023-01-12T07:07:40.482Z,93.25
2023-01-12T07:08:39.821Z,93.25
2023-01-12T07:09:39.805Z,92.84
2023-01-12T07:10:39.835Z,93.15
2023-01-12T07:11:39.791Z,92.63
2023-01-12T07:12:39.775Z,93.35
2023-01-12T07:13:39.768Z,93.56
2023-01-12T07:14:39.755Z,92.84
2023-01-12T07:15:39.813Z,92.94
2023-01-12T07:16:39.741Z,93.15
2023-01-12T07:17:39.749Z,93.35
2023-01-12T07:18:39.722Z,92.94
2023-01-12T07:19:41.480Z,93.15
2023-01-12T07:20:39.703Z,93.46
2023-01-12T07:21:39.687Z,93.56
2023-01-12T07:22:39.688Z,93.35
2023-01-12T07:23:39.673Z,93.56
2023-01-12T07:24:39.651Z,93.87
2023-01-12T07:25:39.644Z,93.25
2023-01-12T07:26:39.655Z,93.66
2023-01-12T07:27:39.634Z,94.08
2023-01-12T07:28:39.619Z,94.38
2023-01-12T07:29:39.659Z,94.49
2023-01-12T07:30:39.587Z,94.18
2023-01-12T07:31:39.606Z,94.38
2023-01-12T07:32:39.616Z,94.49
2023-01-12T07:33:39.562Z,93.87
2023-01-12T07:34:39.570Z,94.28
2023-01-12T07:35:39.540Z,94.80
2023-01-12T07:36:39.531Z,94.49
2023-01-12T07:37:39.537Z,95.21
2023-01-12T07:38:39.507Z,95.00
2023-01-12T07:39:39.505Z,95.10
2023-01-12T07:40:39.483Z,95.05
2023-01-12T07:41:39.483Z,95.73
2023-01-12T07:42:39.478Z,96.08
2023-01-12T07:43:39.473Z,96.28
2023-01-12T07:44:39.447Z,95.98
2023-01-12T07:45:39.442Z,95.87
2023-01-12T07:46:39.466Z,95.77
2023-01-12T07:47:39.452Z,95.77
2023-01-12T07:48:39.399Z,95.98
2023-01-12T07:49:39.396Z,95.98
2023-01-12T07:50:39.420Z,95.77
2023-01-12T07:51:39.380Z,96.08
2023-01-12T07:52:39.410Z,95.98
2023-01-12T07:53:39.353Z,95.87
2023-01-12T07:54:39.339Z,96.39
2023-01-12T07:55:39.334Z,96.28
2023-01-12T07:56:39.323Z,96.28
2023-01-12T07:57:39.343Z,96.59
2023-01-12T07:58:39.302Z,96.08
2023-01-12T07:59:39.294Z,96.70
2023-01-12T08:00:39.278Z,96.91
2023-01-12T08:01:39.425Z,96.80
2023-01-12T08:02:39.279Z,96.91
2023-01-12T08:03:39.260Z,96.91
2023-01-12T08:04:39.241Z,97.01
2023-01-12T08:05:39.316Z,97.11
2023-01-12T08:06:39.221Z,97.73
2023-01-12T08:07:39.259Z,97.83
2023-01-12T08:08:39.199Z,97.83
2023-01-12T08:09:39.191Z,97.83
2023-01-12T08:10:39.186Z,97.73
2023-01-12T08:11:39.174Z,97.11
2023-01-12T08:12:39.167Z,97.42
2023-01-12T08:13:39.173Z,97.31
2023-01-12T08:14:39.146Z,97.01
2023-01-12T08:15:39.126Z,97.42
2023-01-12T08:16:39.124Z,97.21
2023-01-12T08:17:39.124Z,97.01
2023-01-12T08:18:39.099Z,96.91
2023-01-12T08:19:39.089Z,97.11
2023-01-12T08:20:39.073Z,97.11
2023-01-12T08:21:39.066Z,97.31
2023-01-12T08:22:39.088Z,97.42
2023-01-12T08:23:41.049Z,97.42
2023-01-12T08:24:39.031Z,97.52
2023-01-12T08:25:39.030Z,97.31
2023-01-12T08:26:39.042Z,97.21
2023-01-12T08:27:39.038Z,97.52
2023-01-12T08:28:38.991Z,97.52
2023-01-12T08:29:38.986Z,97.42
2023-01-12T08:30:38.967Z,97.11
2023-01-12T08:31:38.988Z,96.91
2023-01-12T08:32:38.953Z,97.31
2023-01-12T08:33:38.958Z,96.59
2023-01-12T08:34:38.929Z,96.91
2023-01-12T08:35:38.922Z,96.91
2023-01-12T08:36:38.987Z,97.01
2023-01-12T08:37:38.901Z,96.49
2023-01-12T08:38:38.886Z,96.59
2023-01-12T08:39:38.884Z,97.17
2023-01-12T08:40:38.978Z,97.21
2023-01-12T08:41:38.882Z,97.31
2023-01-12T08:42:38.854Z,97.27
2023-01-12T08:43:38.841Z,97.11
2023-01-12T08:44:38.829Z,97.38
2023-01-12T08:45:38.821Z,97.11
2023-01-12T08:46:38.878Z,97.31
2023-01-12T08:47:38.797Z,97.11
2023-01-12T08:48:38.795Z,96.59
2023-01-12T08:49:38.776Z,97.01
2023-01-12T08:50:38.761Z,96.59
2023-01-12T08:51:38.774Z,96.39
2023-01-12T08:52:38.759Z,96.86
2023-01-12T08:53:38.738Z,96.70
2023-01-12T08:54:38.721Z,96.59
2023-01-12T08:55:38.720Z,97.11
2023-01-12T08:56:38.813Z,97.17
2023-01-12T08:57:38.703Z,96.91
2023-01-12T08:58:38.712Z,96.70
2023-01-12T08:59:38.678Z,96.18
2023-01-12T09:00:38.689Z,96.45
2023-01-12T09:01:38.827Z,96.39
2023-01-12T09:02:38.738Z,96.03
2023-01-12T09:03:38.643Z,96.75
2023-01-12T09:04:38.618Z,96.24
2023-01-12T09:05:38.618Z,96.34
2023-01-12T09:06:38.616Z,96.59
2023-01-12T09:07:38.595Z,96.24
2023-01-12T09:08:38.583Z,96.34
2023-01-12T09:09:38.575Z,96.14
2023-01-12T09:10:38.561Z,95.73
2023-01-12T09:11:38.575Z,95.52
2023-01-12T09:12:38.537Z,96.03
2023-01-12T09:13:38.530Z,96.14
2023-01-12T09:14:38.595Z,96.45
2023-01-12T09:15:38.508Z,96.24
2023-01-12T09:16:38.579Z,95.83
2023-01-12T09:17:38.493Z,96.14
2023-01-12T09:18:38.471Z,95.93
2023-01-12T09:19:38.471Z,95.68
2023-01-12T09:20:38.453Z,95.73
2023-01-12T09:21:38.464Z,95.89
2023-01-12T09:22:38.450Z,96.30
2023-01-12T09:23:38.427Z,95.89
2023-01-12T09:24:38.433Z,95.78
2023-01-12T09:25:38.402Z,95.68
2023-01-12T09:26:38.417Z,95.89
2023-01-12T09:27:38.393Z,95.78
2023-01-12T09:28:38.376Z,95.78
2023-01-12T09:29:38.373Z,95.17
2023-01-12T09:30:38.353Z,95.27
2023-01-12T09:31:38.389Z,94.76
2023-01-12T09:32:38.339Z,95.17
2023-01-12T09:33:38.330Z,95.48
2023-01-12T09:34:38.372Z,95.58
2023-01-12T09:35:38.301Z,96.09
2023-01-12T09:36:38.305Z,95.99
2023-01-12T09:37:38.296Z,95.78
2023-01-12T09:38:38.277Z,95.68
2023-01-12T09:39:38.268Z,95.68
2023-01-12T09:40:38.250Z,95.27
2023-01-12T09:41:38.273Z,95.37
2023-01-12T09:42:38.304Z,95.89
2023-01-12T09:43:38.227Z,95.78
2023-01-12T09:44:38.200Z,95.58
2023-01-12T09:45:38.268Z,95.48
2023-01-12T09:46:38.204Z,95.17
2023-01-12T09:47:38.192Z,95.06
2023-01-12T09:48:38.192Z,95.48
2023-01-12T09:49:38.176Z,95.27
2023-01-12T09:50:38.146Z,95.23
2023-01-12T09:51:38.151Z,95.17
2023-01-12T09:52:38.144Z,95.23
2023-01-12T09:53:38.116Z,95.43
2023-01-12T09:54:38.111Z,95.53
2023-01-12T09:55:38.130Z,95.53
2023-01-12T09:56:38.128Z,95.43
2023-01-12T09:57:38.079Z,95.23
2023-01-12T09:58:38.080Z,95.33
2023-01-12T09:59:38.064Z,95.53
2023-01-12T10:00:38.058Z,94.81
2023-01-12T10:01:38.110Z,95.02
2023-01-12T10:02:38.194Z,95.43
2023-01-12T10:03:38.039Z,95.74
2023-01-12T10:04:37.999Z,95.02
2023-01-12T10:05:39.903Z,95.43
2023-01-12T10:06:38.023Z,95.23
2023-01-12T10:07:37.988Z,95.53
2023-01-12T10:08:37.981Z,95.23
2023-01-12T10:09:37.988Z,95.23
2023-01-12T10:10:37.967Z,95.23
2023-01-12T10:11:37.961Z,95.33
2023-01-12T10:12:37.920Z,95.43
2023-01-12T10:13:37.914Z,95.84
2023-01-12T10:14:37.900Z,95.64
2023-01-12T10:15:37.896Z,95.64
2023-01-12T10:16:37.940Z,95.53
2023-01-12T10:17:50.384Z,95.43
2023-01-12T10:18:37.881Z,95.33
2023-01-12T10:19:37.871Z,95.23
2023-01-12T10:20:37.847Z,95.43
2023-01-12T10:21:37.870Z,95.53
2023-01-12T10:22:38.045Z,95.12
2023-01-12T10:23:37.861Z,95.95
2023-01-12T10:24:37.809Z,95.33
2023-01-12T10:25:43.791Z,96.05
2023-01-12T10:26:37.791Z,95.95
2023-01-12T10:27:37.769Z,96.15
2023-01-12T10:28:37.791Z,95.95
2023-01-12T10:29:37.748Z,96.15
2023-01-12T10:30:37.753Z,95.64
2023-01-12T10:31:37.836Z,95.95
2023-01-12T10:32:42.063Z,96.36
2023-01-12T10:33:37.727Z,95.84
2023-01-12T10:34:37.694Z,96.15
2023-01-12T10:35:37.689Z,95.95
2023-01-12T10:36:37.703Z,96.05
2023-01-12T10:37:37.668Z,95.90
2023-01-12T10:38:37.656Z,96.15
2023-01-12T10:39:37.644Z,96.21
2023-01-12T10:40:37.697Z,96.00
2023-01-12T10:41:37.660Z,95.70
2023-01-12T10:42:37.622Z,95.59
2023-01-12T10:43:37.608Z,95.49
2023-01-12T10:44:37.603Z,95.39
2023-01-12T10:45:37.649Z,95.39
2023-01-12T10:46:37.574Z,95.49
2023-01-12T10:47:37.648Z,95.59
2023-01-12T10:48:37.563Z,94.98
2023-01-12T10:49:37.549Z,95.28
2023-01-12T10:50:37.526Z,95.18
2023-01-12T10:51:37.545Z,94.77
2023-01-12T10:52:37.537Z,95.49
2023-01-12T10:53:37.520Z,95.08
2023-01-12T10:54:37.498Z,95.08
2023-01-12T10:55:37.496Z,95.18
2023-01-12T10:56:37.487Z,95.90
2023-01-12T10:57:37.487Z,95.59
2023-01-12T10:58:37.450Z,95.70
2023-01-12T10:59:37.467Z,95.03
2023-01-12T11:00:37.442Z,94.93
2023-01-12T11:01:37.565Z,94.73
2023-01-12T11:02:37.420Z,94.62
2023-01-12T11:03:37.490Z,94.93
2023-01-12T11:04:37.417Z,94.83
2023-01-12T11:05:37.381Z,94.73
2023-01-12T11:06:37.365Z,94.62
2023-01-12T11:07:37.362Z,94.93
2023-01-12T11:08:37.355Z,94.93
2023-01-12T11:09:37.367Z,95.03
2023-01-12T11:10:37.362Z,94.73
2023-01-12T11:11:37.324Z,95.03
2023-01-12T11:12:37.323Z,95.24
2023-01-12T11:13:37.310Z,95.14
2023-01-12T11:14:37.300Z,95.24
2023-01-12T11:15:37.285Z,95.55
2023-01-12T11:16:37.360Z,95.45
2023-01-12T11:17:37.255Z,95.40
2023-01-12T11:18:37.259Z,95.30
2023-01-12T11:19:37.264Z,95.09
2023-01-12T11:20:37.236Z,95.40
2023-01-12T11:21:37.223Z,95.20
2023-01-12T11:22:37.250Z,95.50
2023-01-12T11:23:37.207Z,94.89
2023-01-12T11:24:37.201Z,94.68
2023-01-12T11:25:37.195Z,95.09
2023-01-12T11:26:37.174Z,95.09
2023-01-12T11:27:37.164Z,94.78
2023-01-12T11:28:37.155Z,95.09
2023-01-12T11:29:37.158Z,94.78
2023-01-12T11:30:37.173Z,94.99
2023-01-12T11:31:37.116Z,95.30
2023-01-12T11:32:37.115Z,94.58
2023-01-12T11:33:37.109Z,95.20
2023-01-12T11:34:37.105Z,95.09
2023-01-12T11:35:37.086Z,95.50
2023-01-12T11:36:37.067Z,95.40
2023-01-12T11:37:37.094Z,94.99
2023-01-12T11:38:37.053Z,95.20
2023-01-12T11:39:37.046Z,95.30
2023-01-12T11:40:37.027Z,94.89
2023-01-12T11:41:37.045Z,94.95
2023-01-12T11:42:37.026Z,95.25
2023-01-12T11:43:36.994Z,95.05
2023-01-12T11:44:37.001Z,94.23
2023-01-12T11:45:36.968Z,94.64
2023-01-12T11:46:36.962Z,95.56
2023-01-12T11:47:36.991Z,94.84
2023-01-12T11:48:36.947Z,94.23
2023-01-12T11:49:36.935Z,94.54
2023-01-12T11:50:36.957Z,94.54
2023-01-12T11:51:36.912Z,94.64
2023-01-12T11:52:36.941Z,95.05
2023-01-12T11:53:36.884Z,94.95
2023-01-12T11:54:36.901Z,94.39
2023-01-12T11:55:36.869Z,94.70
2023-01-12T11:56:36.876Z,94.18
2023-01-12T11:57:36.880Z,94.54
2023-01-12T11:58:36.840Z,94.74
2023-01-12T11:59:36.846Z,95.10
2023-01-12T12:00:36.818Z,94.80
2023-01-12T12:01:36.807Z,95.10
2023-01-12T12:02:36.926Z,94.95
2023-01-12T12:03:36.808Z,94.80
2023-01-12T12:04:36.792Z,94.74
2023-01-12T12:05:36.771Z,95.31
2023-01-12T12:06:36.788Z,95.15
2023-01-12T12:07:36.790Z,94.95
2023-01-12T12:08:36.752Z,95.21
2023-01-12T12:09:36.726Z,95.31
2023-01-12T12:10:36.714Z,95.10
2023-01-12T12:11:36.702Z,94.59
2023-01-12T12:12:36.719Z,94.39
2023-01-12T12:13:36.686Z,94.49
2023-01-12T12:14:36.681Z,94.70
2023-01-12T12:15:36.676Z,94.29
2023-01-12T12:16:36.717Z,94.29
2023-01-12T12:17:36.794Z,94.08
2023-01-12T12:18:36.786Z,94.08
2023-01-12T12:19:36.626Z,94.18
2023-01-12T12:20:36.624Z,93.93
2023-01-12T12:21:36.850Z,94.14
2023-01-12T12:22:36.625Z,93.83
2023-01-12T12:23:36.723Z,93.93
2023-01-12T12:24:36.597Z,93.83
2023-01-12T12:25:36.600Z,93.63
2023-01-12T12:26:36.578Z,93.73
2023-01-12T12:27:36.567Z,94.24
2023-01-12T12:28:36.551Z,94.04
2023-01-12T12:29:36.534Z,94.34
2023-01-12T12:30:36.523Z,94.14
2023-01-12T12:31:36.502Z,94.04
2023-01-12T12:32:36.508Z,93.83
2023-01-12T12:33:36.478Z,93.63
2023-01-12T12:34:36.481Z,93.42
2023-01-12T12:35:36.472Z,93.73
2023-01-12T12:36:36.473Z,93.12
2023-01-12T12:37:36.516Z,93.32
2023-01-12T12:38:36.464Z,93.83
2023-01-12T12:39:36.438Z,93.73
2023-01-12T12:40:36.418Z,93.83
2023-01-12T12:41:36.469Z,93.63
2023-01-12T12:42:36.405Z,94.24
2023-01-12T12:43:36.386Z,93.52
2023-01-12T12:44:36.385Z,93.93
2023-01-12T12:45:36.397Z,94.04
2023-01-12T12:46:36.388Z,94.24
2023-01-12T12:47:36.361Z,94.45
2023-01-12T12:48:36.339Z,94.55
2023-01-12T12:49:36.340Z,94.14
2023-01-12T12:50:36.321Z,94.34
2023-01-12T12:51:36.356Z,94.65
2023-01-12T12:52:36.316Z,94.65